createdAt,value
2018-03-26T00:01:24.851Z,32.57
2018-03-26T00:03:52.511Z,32.57
2018-03-26T00:06:20.270Z,32.00
2018-03-26T00:08:47.931Z,33.63
2018-03-26T00:11:15.599Z,32.10
2018-03-26T00:13:43.290Z,31.47
2018-03-26T00:16:10.929Z,31.37
2018-03-26T00:18:38.666Z,30.93
2018-03-26T00:21:06.435Z,31.23
2018-03-26T00:23:34.090Z,30.93
2018-03-26T00:26:01.841Z,31.07
2018-03-26T00:28:29.516Z,30.90
2018-03-26T00:30:57.154Z,30.37
2018-03-26T00:33:24.768Z,32.10
2018-03-26T00:35:53.438Z,30.53
2018-03-26T00:38:21.081Z,31.13
2018-03-26T00:40:48.748Z,31.80
2018-03-26T00:43:16.493Z,32.30
2018-03-26T00:45:45.096Z,30.17
2018-03-26T00:48:12.758Z,31.70
2018-03-26T00:50:40.497Z,31.43
2018-03-26T00:53:08.158Z,32.27
2018-03-26T00:55:35.811Z,33.27
2018-03-26T00:58:05.241Z,31.53
2018-03-26T01:00:33.167Z,32.53
2018-03-26T01:03:03.350Z,33.47
2018-03-26T01:05:31.492Z,36.20
2018-03-26T01:07:59.452Z,36.10
2018-03-26T01:10:28.060Z,37.60
2018-03-26T01:15:32.022Z,37.57
2018-03-26T01:18:00.013Z,39.80
2018-03-26T01:20:28.471Z,40.37
2018-03-26T01:22:58.941Z,41.43
2018-03-26T01:25:29.225Z,41.37
2018-03-26T01:27:57.339Z,38.73
2018-03-26T01:30:25.213Z,39.33
2018-03-26T01:32:53.064Z,37.67
2018-03-26T01:35:20.928Z,39.03
2018-03-26T01:37:48.571Z,39.50
2018-03-26T01:40:18.237Z,42.93
2018-03-26T01:42:48.117Z,44.47
2018-03-26T01:45:15.902Z,46.03
2018-03-26T01:47:43.564Z,49.50
2018-03-26T01:50:12.162Z,49.87
2018-03-26T01:52:39.740Z,41.50
2018-03-26T01:55:08.158Z,40.67
2018-03-26T01:57:36.531Z,39.87
2018-03-26T02:00:05.155Z,41.47
2018-03-26T02:02:32.753Z,39.07
2018-03-26T02:05:01.256Z,39.30
2018-03-26T02:07:28.874Z,42.87
2018-03-26T02:09:56.693Z,39.97
2018-03-26T02:12:24.365Z,43.47
2018-03-26T02:14:51.981Z,46.10
2018-03-26T02:17:20.060Z,50.93
2018-03-26T02:19:48.127Z,50.73
2018-03-26T02:22:15.835Z,46.87
2018-03-26T02:24:44.043Z,44.37
2018-03-26T02:27:11.967Z,49.20
2018-03-26T02:29:39.752Z,43.57
2018-03-26T02:32:08.423Z,46.10
2018-03-26T02:34:36.154Z,40.27
2018-03-26T02:37:05.307Z,41.50
2018-03-26T02:39:33.025Z,42.33
2018-03-26T02:42:00.658Z,38.37
2018-03-26T02:44:28.255Z,38.90
2018-03-26T02:46:55.880Z,38.57
2018-03-26T02:49:23.543Z,35.00
2018-03-26T02:51:51.848Z,35.60
2018-03-26T02:54:20.325Z,39.40
2018-03-26T02:56:47.996Z,36.07
2018-03-26T02:59:15.644Z,37.37
2018-03-26T03:01:45.371Z,36.07
2018-03-26T03:04:15.522Z,32.30
2018-03-26T03:06:43.268Z,34.73
2018-03-26T03:09:10.923Z,32.93
2018-03-26T03:11:38.840Z,34.00
2018-03-26T03:14:06.574Z,36.50
2018-03-26T03:16:34.240Z,34.30
2018-03-26T03:19:01.903Z,34.33
2018-03-26T03:21:29.566Z,35.07
2018-03-26T03:23:57.284Z,37.67
2018-03-26T03:26:25.155Z,38.37
2018-03-26T03:28:52.884Z,37.77
2018-03-26T03:31:20.619Z,37.73
2018-03-26T03:33:48.269Z,37.00
2018-03-26T03:36:15.962Z,33.50
2018-03-26T03:38:44.496Z,32.60
2018-03-26T03:41:13.201Z,36.27
2018-03-26T03:43:40.854Z,34.97
2018-03-26T03:46:09.231Z,37.27
2018-03-26T03:48:36.845Z,36.80
2018-03-26T03:51:04.498Z,31.23
2018-03-26T03:53:32.116Z,30.70
2018-03-26T03:55:59.714Z,29.80
2018-03-26T03:58:27.344Z,27.43
2018-03-26T04:00:54.942Z,30.53
2018-03-26T04:03:24.272Z,28.97
2018-03-26T04:05:51.950Z,30.17
2018-03-26T04:08:19.600Z,33.87
2018-03-26T04:10:47.364Z,32.63
2018-03-26T04:13:14.993Z,33.20
2018-03-26T04:15:43.464Z,31.03
2018-03-26T04:18:11.182Z,29.97
2018-03-26T04:20:38.907Z,27.53
2018-03-26T04:23:07.518Z,27.00
2018-03-26T04:25:36.817Z,26.77
2018-03-26T04:28:04.516Z,25.87
2018-03-26T04:30:32.173Z,25.33
2018-03-26T04:32:59.793Z,24.27
2018-03-26T04:35:28.278Z,22.13
2018-03-26T04:37:55.878Z,23.40
2018-03-26T04:40:24.303Z,20.77
2018-03-26T04:42:52.836Z,20.33
2018-03-26T04:45:21.246Z,20.67
2018-03-26T04:47:48.915Z,18.60
2018-03-26T04:50:16.702Z,19.50
2018-03-26T04:52:45.750Z,18.77
2018-03-26T04:55:13.382Z,18.47
2018-03-26T04:57:41.022Z,17.43
2018-03-26T05:00:08.654Z,17.50
2018-03-26T05:02:36.269Z,17.30
2018-03-26T05:05:03.995Z,16.97
2018-03-26T05:07:33.361Z,18.13
2018-03-26T05:10:01.981Z,18.03
2018-03-26T05:12:33.644Z,15.97
2018-03-26T05:15:02.138Z,17.40
2018-03-26T05:17:29.869Z,17.37
2018-03-26T05:19:57.483Z,16.83
2018-03-26T05:22:25.981Z,15.00
2018-03-26T05:24:53.614Z,15.17
2018-03-26T05:27:21.970Z,13.70
2018-03-26T05:29:49.569Z,15.57
2018-03-26T05:32:17.962Z,14.67
2018-03-26T05:34:45.657Z,14.97
2018-03-26T05:37:13.274Z,16.30
2018-03-26T05:39:41.009Z,16.43
2018-03-26T05:42:08.613Z,15.97
2018-03-26T05:44:36.230Z,16.50
2018-03-26T05:47:04.801Z,16.47
2018-03-26T05:49:32.707Z,16.30
2018-03-26T05:52:00.385Z,18.23
2018-03-26T05:54:28.769Z,19.23
2018-03-26T05:56:56.409Z,17.47
2018-03-26T05:59:24.036Z,20.70
2018-03-26T06:01:51.654Z,19.90
2018-03-26T06:04:19.292Z,22.80
2018-03-26T06:06:46.915Z,22.93
2018-03-26T06:09:14.577Z,20.47
2018-03-26T06:11:43.411Z,19.40
2018-03-26T06:14:11.817Z,19.30
2018-03-26T06:16:51.282Z,17.60
2018-03-26T06:19:19.816Z,16.50
2018-03-26T06:21:47.481Z,13.93
2018-03-26T06:24:15.090Z,14.17
2018-03-26T06:26:43.766Z,15.83
2018-03-26T06:29:11.464Z,15.47
2018-03-26T06:31:39.077Z,14.97
2018-03-26T06:34:06.782Z,13.40
2018-03-26T06:36:39.959Z,13.93
2018-03-26T06:39:13.275Z,13.97
2018-03-26T06:41:42.743Z,14.23
2018-03-26T06:44:13.658Z,14.33
2018-03-26T06:46:42.362Z,13.67
2018-03-26T06:49:10.039Z,15.10
2018-03-26T06:51:37.742Z,15.57
2018-03-26T06:54:05.400Z,16.67
2018-03-26T06:56:33.027Z,15.73
2018-03-26T06:59:00.822Z,16.33
2018-03-26T07:01:33.365Z,16.27
2018-03-26T07:04:02.891Z,15.13
2018-03-26T07:06:30.708Z,15.93
2018-03-26T07:08:59.195Z,16.10
2018-03-26T07:11:26.956Z,17.03
2018-03-26T07:13:55.463Z,16.13
2018-03-26T07:16:24.724Z,16.33
2018-03-26T07:18:53.457Z,15.50
2018-03-26T07:21:21.983Z,15.57
2018-03-26T07:23:49.805Z,16.50
2018-03-26T07:26:17.583Z,16.30
2018-03-26T07:28:45.491Z,14.27
2018-03-26T07:31:13.164Z,14.47
2018-03-26T07:33:41.044Z,16.93
2018-03-26T07:36:08.769Z,16.33
2018-03-26T07:38:37.281Z,14.57
2018-03-26T07:41:06.103Z,13.60
2018-03-26T07:43:33.876Z,13.97
2018-03-26T07:46:03.950Z,14.17
2018-03-26T07:48:33.055Z,14.23
2018-03-26T07:51:00.820Z,14.10
2018-03-26T07:53:29.314Z,14.97
2018-03-26T07:55:58.165Z,13.67
2018-03-26T07:58:26.827Z,12.97
2018-03-26T08:00:55.026Z,13.10
2018-03-26T08:03:23.218Z,13.93
2018-03-26T08:05:50.976Z,13.83
2018-03-26T08:08:21.509Z,14.60
2018-03-26T08:10:49.247Z,13.57
2018-03-26T08:13:17.305Z,13.17
2018-03-26T08:15:45.049Z,12.27
2018-03-26T08:18:13.069Z,13.10
2018-03-26T08:20:40.832Z,12.07
2018-03-26T08:23:08.757Z,12.20
2018-03-26T08:25:37.314Z,11.57
2018-03-26T08:28:06.486Z,11.60
2018-03-26T08:30:34.796Z,13.57
2018-03-26T08:33:02.876Z,13.27
2018-03-26T08:35:31.218Z,13.33
2018-03-26T08:37:58.893Z,14.33
2018-03-26T08:40:26.585Z,13.20
2018-03-26T08:42:54.613Z,14.37
2018-03-26T08:45:22.453Z,13.43
2018-03-26T08:47:51.013Z,13.73
2018-03-26T08:50:18.716Z,13.37
2018-03-26T08:52:46.441Z,12.23
2018-03-26T08:55:14.193Z,12.27
2018-03-26T08:57:41.857Z,13.13
2018-03-26T09:00:10.265Z,13.20
2018-03-26T09:02:37.907Z,12.23
2018-03-26T09:05:06.151Z,12.30
2018-03-26T09:07:34.552Z,11.23
2018-03-26T09:10:03.062Z,12.10
2018-03-26T09:12:30.702Z,13.10
2018-03-26T09:14:58.398Z,11.53
2018-03-26T09:17:26.314Z,12.27
2018-03-26T09:19:53.954Z,11.67
2018-03-26T09:22:21.864Z,12.30
2018-03-26T09:24:53.364Z,11.97
2018-03-26T09:27:21.117Z,12.83
2018-03-26T09:29:49.193Z,13.50
2018-03-26T09:32:18.261Z,13.70
2018-03-26T09:34:48.594Z,13.70
2018-03-26T09:37:17.417Z,14.03
2018-03-26T09:39:45.272Z,13.87
2018-03-26T09:42:13.198Z,13.97
2018-03-26T09:44:40.814Z,14.47
2018-03-26T09:47:08.472Z,14.87
2018-03-26T09:49:36.115Z,15.67
2018-03-26T09:52:04.615Z,15.83
2018-03-26T09:54:32.280Z,14.30
2018-03-26T09:57:00.754Z,14.20
2018-03-26T09:59:28.422Z,14.30
2018-03-26T10:01:57.836Z,15.20
2018-03-26T10:04:26.251Z,15.97
2018-03-26T10:06:53.896Z,16.23
2018-03-26T10:09:21.545Z,15.90
2018-03-26T10:11:49.138Z,16.37
2018-03-26T10:14:16.758Z,15.50
2018-03-26T10:16:44.371Z,16.80
2018-03-26T10:19:11.946Z,16.00
2018-03-26T10:21:40.353Z,17.30
2018-03-26T10:24:08.020Z,17.33
2018-03-26T10:26:35.659Z,17.07
2018-03-26T10:29:04.103Z,16.13
2018-03-26T10:31:31.750Z,15.93
2018-03-26T10:34:01.354Z,15.93
2018-03-26T10:36:28.968Z,16.73
2018-03-26T10:38:56.684Z,17.73
2018-03-26T10:41:24.308Z,18.03
2018-03-26T10:43:52.884Z,18.83
2018-03-26T10:46:20.478Z,20.20
2018-03-26T10:48:48.856Z,19.77
2018-03-26T10:51:17.257Z,19.87
2018-03-26T10:53:44.864Z,19.40
2018-03-26T10:56:12.508Z,20.10
2018-03-26T10:58:41.808Z,19.50
2018-03-26T11:01:09.498Z,19.70
2018-03-26T11:03:37.096Z,21.67
2018-03-26T11:06:04.697Z,22.40
2018-03-26T11:08:32.285Z,20.37
2018-03-26T11:10:59.918Z,21.53
2018-03-26T11:13:27.527Z,21.63
2018-03-26T11:15:55.168Z,22.33
2018-03-26T11:18:22.839Z,22.00
2018-03-26T11:20:50.479Z,21.37
2018-03-26T11:23:18.978Z,22.23
2018-03-26T11:25:46.627Z,22.03
2018-03-26T11:28:14.250Z,21.57
2018-03-26T11:30:42.158Z,22.60
2018-03-26T11:33:09.791Z,21.93
2018-03-26T11:35:37.530Z,22.10
2018-03-26T11:38:05.176Z,21.43
2018-03-26T11:40:32.783Z,21.20
2018-03-26T11:43:00.357Z,19.80
2018-03-26T11:45:27.980Z,20.57
2018-03-26T11:47:55.594Z,18.70
2018-03-26T11:50:23.225Z,20.10
2018-03-26T11:52:51.559Z,19.13
2018-03-26T11:55:19.183Z,17.47
2018-03-26T11:57:46.795Z,17.40
2018-03-26T12:00:15.193Z,15.37
2018-03-26T12:02:43.593Z,17.53
2018-03-26T12:05:12.230Z,14.07
2018-03-26T12:07:39.858Z,12.83
2018-03-26T12:10:07.630Z,13.43
2018-03-26T12:12:35.254Z,14.00
2018-03-26T12:15:03.936Z,13.63
2018-03-26T12:17:31.627Z,12.83
2018-03-26T12:20:10.938Z,10.90
2018-03-26T12:22:39.308Z,10.90
2018-03-26T12:25:11.772Z,7.73
2018-03-26T12:27:51.314Z,9.83
2018-03-26T12:30:24.830Z,8.07
2018-03-26T12:32:53.234Z,8.20
2018-03-26T12:35:33.393Z,7.17
2018-03-26T12:38:00.985Z,7.10
2018-03-26T12:40:40.299Z,6.73
2018-03-26T12:43:07.955Z,5.30
2018-03-26T12:45:47.553Z,4.27
2018-03-26T12:48:16.807Z,5.07
2018-03-26T12:50:56.274Z,5.57
2018-03-26T12:53:23.889Z,5.37
2018-03-26T12:55:51.573Z,5.00
2018-03-26T12:58:30.899Z,4.83
2018-03-26T13:01:10.490Z,5.33
2018-03-26T13:03:38.081Z,5.63
2018-03-26T13:06:06.492Z,5.30
2018-03-26T13:08:34.122Z,4.57
2018-03-26T13:11:01.780Z,4.67
2018-03-26T13:13:29.362Z,4.47
2018-03-26T13:15:56.995Z,4.20
2018-03-26T13:18:24.642Z,3.97
2018-03-26T13:20:52.213Z,4.10
2018-03-26T13:23:19.836Z,4.30
2018-03-26T13:25:48.251Z,3.57
2018-03-26T13:28:15.897Z,3.67
2018-03-26T13:30:43.591Z,3.97
2018-03-26T13:33:11.211Z,4.13
2018-03-26T13:35:38.804Z,3.90
2018-03-26T13:38:06.409Z,4.23
2018-03-26T13:40:34.102Z,4.77
2018-03-26T13:43:01.826Z,4.40
2018-03-26T13:45:29.442Z,4.70
2018-03-26T13:47:57.820Z,4.07
2018-03-26T13:50:27.081Z,5.03
2018-03-26T13:52:54.744Z,4.20
2018-03-26T13:55:22.385Z,4.87
2018-03-26T13:57:49.999Z,5.00
2018-03-26T14:00:17.613Z,4.70
2018-03-26T14:02:45.255Z,4.80
2018-03-26T14:05:13.621Z,4.57
2018-03-26T14:07:41.275Z,4.60
2018-03-26T14:10:20.728Z,4.17
2018-03-26T14:13:00.057Z,4.57
2018-03-26T14:15:39.471Z,5.00
2018-03-26T14:18:07.174Z,4.50
2018-03-26T14:20:35.006Z,4.43
2018-03-26T14:23:02.647Z,4.60
2018-03-26T14:25:30.545Z,4.40
2018-03-26T14:27:58.209Z,4.50
2018-03-26T14:30:25.950Z,4.77
2018-03-26T14:32:53.608Z,4.77
2018-03-26T15:00:07.323Z,4.33
2018-03-26T15:02:35.061Z,5.33
2018-03-26T15:05:03.584Z,5.00
2018-03-26T15:07:31.976Z,19.30
2018-03-26T15:10:01.082Z,23.17
2018-03-26T15:12:29.529Z,5.30
2018-03-26T15:14:57.144Z,6.57
2018-03-26T15:17:24.826Z,7.70
2018-03-26T15:19:52.505Z,9.90
2018-03-26T15:22:20.959Z,8.90
2018-03-26T15:24:49.478Z,8.20
2018-03-26T15:27:17.156Z,6.27
2018-03-26T15:29:44.782Z,5.80
2018-03-26T15:32:12.441Z,5.40
2018-03-26T15:34:40.097Z,5.73
2018-03-26T15:37:08.533Z,7.03
2018-03-26T15:39:36.139Z,6.93
2018-03-26T15:42:03.858Z,6.93
2018-03-26T15:44:31.553Z,11.40
2018-03-26T15:46:59.220Z,7.40
2018-03-26T15:49:27.351Z,7.70
2018-03-26T15:51:55.069Z,7.00
2018-03-26T15:54:22.904Z,6.90
2018-03-26T15:56:51.034Z,9.80
2018-03-26T15:59:18.731Z,9.60
2018-03-26T16:01:47.192Z,12.27
2018-03-26T16:04:14.996Z,14.57
2018-03-26T16:06:42.919Z,10.70
2018-03-26T16:09:10.567Z,8.83
2018-03-26T16:11:38.437Z,8.27
2018-03-26T16:14:09.435Z,8.67
2018-03-26T16:19:15.435Z,8.03
2018-03-26T16:21:43.814Z,7.50
2018-03-26T16:24:13.049Z,7.53
2018-03-26T16:26:44.881Z,7.70
2018-03-26T16:29:12.519Z,7.80
2018-03-26T16:31:40.984Z,8.00
2018-03-26T16:34:08.673Z,7.70
2018-03-26T16:36:36.407Z,8.30
2018-03-26T16:39:05.122Z,8.13
2018-03-26T16:41:48.308Z,8.17
2018-03-26T16:44:16.004Z,7.70
2018-03-26T16:46:44.449Z,9.20
2018-03-26T16:49:12.199Z,9.33
2018-03-26T16:51:39.832Z,8.20
2018-03-26T16:54:08.453Z,8.13
2018-03-26T16:56:36.049Z,8.20
2018-03-26T16:59:03.683Z,8.40
2018-03-26T17:01:34.679Z,10.07
2018-03-26T17:04:02.317Z,11.07
2018-03-26T17:06:29.955Z,11.20
2018-03-26T17:09:00.211Z,11.20
2018-03-26T17:11:27.812Z,11.07
2018-03-26T17:13:56.746Z,11.97
2018-03-26T17:16:24.409Z,12.40
2018-03-26T17:18:52.120Z,11.93
2018-03-26T17:21:19.739Z,11.73
2018-03-26T17:23:47.376Z,11.37
2018-03-26T17:26:15.759Z,10.93
2018-03-26T17:28:44.140Z,11.83
2018-03-26T17:31:12.741Z,12.67
2018-03-26T17:33:40.341Z,11.57
2018-03-26T17:36:07.949Z,11.60
2018-03-26T17:38:35.631Z,11.20
2018-03-26T17:41:03.376Z,11.33
2018-03-26T17:43:31.056Z,11.67
2018-03-26T17:45:58.833Z,9.57
2018-03-26T17:48:26.935Z,9.43
2018-03-26T17:50:54.985Z,9.50
2018-03-26T17:53:22.721Z,9.30
2018-03-26T17:55:50.406Z,9.20
2018-03-26T17:58:19.080Z,10.10
2018-03-26T18:00:46.761Z,11.00
2018-03-26T18:03:14.423Z,10.77
2018-03-26T18:05:42.444Z,11.80
2018-03-26T18:08:10.146Z,10.57
2018-03-26T18:10:38.368Z,12.33
2018-03-26T18:13:07.164Z,14.10
2018-03-26T18:15:35.076Z,10.63
2018-03-26T18:18:02.901Z,9.50
2018-03-26T18:20:30.645Z,14.77
2018-03-26T18:22:58.329Z,11.03
2018-03-26T18:25:25.990Z,10.77
2018-03-26T18:27:54.487Z,11.23
2018-03-26T18:30:22.905Z,11.10
2018-03-26T18:32:50.720Z,10.57
2018-03-26T18:35:18.389Z,10.57
2018-03-26T18:37:46.171Z,11.60
2018-03-26T18:40:14.656Z,9.67
2018-03-26T18:42:43.371Z,9.83
2018-03-26T18:45:13.362Z,9.07
2018-03-26T18:47:45.260Z,11.03
2018-03-26T18:50:13.578Z,10.87
2018-03-26T18:52:42.360Z,10.63
2018-03-26T18:55:10.982Z,10.33
2018-03-26T18:57:41.740Z,10.23
2018-03-26T19:00:09.848Z,9.60
2018-03-26T19:02:37.654Z,9.80
2018-03-26T19:05:05.616Z,8.93
2018-03-26T19:07:33.529Z,9.27
2018-03-26T19:10:01.176Z,8.27
2018-03-26T19:12:28.949Z,8.47
2018-03-26T19:14:56.697Z,8.30
2018-03-26T19:17:24.583Z,8.73
2018-03-26T19:19:52.293Z,8.93
2018-03-26T19:22:20.163Z,9.20
2018-03-26T19:24:48.729Z,9.83
2018-03-26T19:27:16.437Z,9.33
2018-03-26T19:29:44.181Z,9.00
2018-03-26T19:32:11.858Z,9.27
2018-03-26T19:34:39.717Z,9.17
2018-03-26T19:37:07.566Z,9.57
2018-03-26T19:39:36.386Z,10.03
2018-03-26T19:42:04.168Z,11.03
2018-03-26T19:44:32.144Z,10.60
2018-03-26T19:46:59.770Z,10.30
2018-03-26T19:49:27.373Z,22.47
2018-03-26T19:51:55.057Z,20.43
2018-03-26T19:54:22.699Z,15.70
2018-03-26T19:56:50.327Z,12.47
2018-03-26T19:59:18.763Z,12.63
2018-03-26T20:01:46.422Z,14.00
2018-03-26T20:04:14.218Z,15.37
2018-03-26T20:06:41.929Z,15.80
2018-03-26T20:09:10.594Z,15.30
2018-03-26T20:11:38.259Z,15.43
2018-03-26T20:14:05.980Z,14.47
2018-03-26T20:16:33.657Z,14.80
2018-03-26T20:19:01.360Z,15.30
2018-03-26T20:21:29.086Z,15.80
2018-03-26T20:23:56.710Z,16.10
2018-03-26T20:26:24.331Z,16.90
2018-03-26T20:28:52.056Z,15.63
2018-03-26T20:31:19.712Z,15.03
2018-03-26T20:33:48.185Z,14.20
2018-03-26T20:36:15.870Z,15.17
2018-03-26T20:38:43.686Z,13.70
2018-03-26T20:41:11.445Z,14.70
2018-03-26T20:43:39.171Z,13.67
2018-03-26T20:46:07.703Z,14.80
2018-03-26T20:48:35.341Z,13.93
2018-03-26T20:51:03.073Z,14.53
2018-03-26T20:53:30.722Z,14.83
2018-03-26T20:55:59.843Z,14.43
2018-03-26T20:58:27.517Z,12.73
2018-03-26T21:00:55.961Z,13.00
2018-03-26T21:03:23.608Z,13.70
2018-03-26T21:05:51.197Z,14.00
2018-03-26T21:08:18.850Z,13.33
2018-03-26T21:10:46.498Z,13.53
2018-03-26T21:13:14.914Z,13.83
2018-03-26T21:15:42.608Z,12.47
2018-03-26T21:18:10.296Z,12.83
2018-03-26T21:20:38.715Z,13.63
2018-03-26T21:23:06.358Z,13.27
2018-03-26T21:25:34.110Z,13.40
2018-03-26T21:28:01.809Z,12.80
2018-03-26T21:30:30.309Z,13.17
2018-03-26T21:32:57.980Z,13.10
2018-03-26T21:35:25.653Z,13.93
2018-03-26T21:37:53.311Z,14.53
2018-03-26T21:40:20.917Z,15.20
2018-03-26T21:42:48.524Z,15.40
2018-03-26T21:45:16.900Z,15.93
2018-03-26T21:47:45.293Z,15.23
2018-03-26T21:50:13.657Z,16.50
2018-03-26T21:52:42.031Z,16.23
2018-03-26T21:55:09.630Z,17.97
2018-03-26T21:57:38.011Z,17.17
2018-03-26T22:00:21.736Z,17.27
2018-03-26T22:02:50.215Z,18.07
2018-03-26T22:05:18.684Z,18.67
2018-03-26T22:07:47.083Z,19.10
2018-03-26T22:10:14.774Z,18.67
2018-03-26T22:12:42.478Z,20.07
2018-03-26T22:15:10.179Z,19.20
2018-03-26T22:17:38.595Z,19.00
2018-03-26T22:20:06.223Z,19.63
2018-03-26T22:22:33.885Z,19.67
2018-03-26T22:25:01.512Z,20.27
2018-03-26T22:27:29.107Z,19.30
2018-03-26T22:29:56.762Z,19.27
2018-03-26T22:32:24.394Z,19.73
2018-03-26T22:34:52.022Z,20.03
2018-03-26T22:37:19.653Z,19.83
2018-03-26T22:39:47.314Z,20.00
2018-03-26T22:42:14.931Z,19.07
2018-03-26T22:44:42.595Z,18.80
2018-03-26T22:47:10.213Z,18.97
2018-03-26T22:49:37.869Z,19.33
2018-03-26T22:52:05.557Z,19.13
2018-03-26T22:54:33.145Z,18.97
2018-03-26T22:57:00.782Z,20.33
2018-03-26T22:59:28.421Z,19.80
2018-03-26T23:01:56.117Z,19.17
2018-03-26T23:04:23.741Z,17.90
2018-03-26T23:06:52.146Z,17.33
2018-03-26T23:09:19.741Z,17.73
2018-03-26T23:11:47.321Z,17.03
2018-03-26T23:14:14.921Z,17.23
2018-03-26T23:16:42.742Z,16.70
2018-03-26T23:19:10.329Z,16.50
2018-03-26T23:21:37.912Z,17.13
2018-03-26T23:24:06.307Z,17.67
2018-03-26T23:26:34.658Z,16.67
2018-03-26T23:29:02.239Z,17.87
2018-03-26T23:31:30.594Z,17.77
2018-03-26T23:33:58.198Z,17.00
2018-03-26T23:36:26.512Z,17.13
2018-03-26T23:38:54.080Z,16.37
2018-03-26T23:41:21.646Z,17.33
2018-03-26T23:43:49.228Z,16.70
2018-03-26T23:46:16.821Z,19.63
2018-03-26T23:48:44.461Z,18.67
2018-03-26T23:51:12.030Z,19.57
2018-03-26T23:53:39.594Z,20.87
2018-03-26T23:56:07.203Z,19.50
2018-03-26T23:58:34.819Z,18.13
